Time;durP1;ratioP1;P1;durP2;ratioP2;P2;SDS_P1;SDS_P2;PMS_P1;PMS_P2;Temp;Humidity;BMP_temperature;BMP_pressure;BME280_temperature;BME280_humidity;BME280_pressure;Samples;Min_cycle;Max_cycle;Signal;HPM_P1;HPM_P2
2023/06/02 00:01:31;;;;;;;2.92;1.40;;;;;;;9.12;100.00;102380.50;4952339;28;20055;-69
2023/06/02 00:04:03;;;;;;;8.75;1.85;;;;;;;9.06;100.00;102382.28;4953105;29;20122;-69
2023/06/02 00:06:33;;;;;;;7.65;1.75;;;;;;;9.07;100.00;102391.88;4952323;28;20110;-69
2023/06/02 00:09:03;;;;;;;6.15;2.00;;;;;;;9.16;100.00;102397.03;4954266;28;20410;-69
2023/06/02 00:11:34;;;;;;;9.52;1.77;;;;;;;9.12;100.00;102377.91;4953043;29;20083;-69
2023/06/02 00:14:03;;;;;;;5.47;1.80;;;;;;;9.12;100.00;102383.13;4955223;28;20047;-69
2023/06/02 00:16:32;;;;;;;4.95;1.63;;;;;;;9.11;100.00;102378.75;4954060;28;20047;-69
2023/06/02 00:18:59;;;;;;;5.07;1.77;;;;;;;9.00;100.00;102390.16;4954988;28;20054;-69
2023/06/02 00:21:26;;;;;;;5.30;1.70;;;;;;;9.03;100.00;102375.34;4952908;28;20050;-69
2023/06/02 00:23:53;;;;;;;5.38;1.80;;;;;;;9.14;100.00;102388.34;4954209;28;20063;-69
2023/06/02 00:26:20;;;;;;;6.07;1.70;;;;;;;9.10;100.00;102382.28;4953727;28;20039;-69
2023/06/02 00:28:47;;;;;;;5.20;1.50;;;;;;;9.11;100.00;102372.69;4955199;29;20397;-69
2023/06/02 00:31:14;;;;;;;4.38;1.42;;;;;;;9.02;100.00;102370.13;4954859;28;20051;-69
2023/06/02 00:33:41;;;;;;;2.78;1.20;;;;;;;9.11;100.00;102384.00;4954279;28;20472;-69
2023/06/02 00:36:08;;;;;;;3.47;1.20;;;;;;;8.99;100.00;102377.97;4953331;29;20481;-69
2023/06/02 00:38:35;;;;;;;4.82;1.20;;;;;;;9.01;100.00;102384.03;4954156;29;20126;-69
2023/06/02 00:41:02;;;;;;;5.28;1.38;;;;;;;8.97;100.00;102382.34;4953748;29;20051;-69
2023/06/02 00:43:28;;;;;;;4.80;1.40;;;;;;;8.91;100.00;102363.19;4954336;29;20047;-69
2023/06/02 00:45:55;;;;;;;6.97;1.50;;;;;;;8.95;100.00;102381.47;4953797;28;20043;-69
2023/06/02 00:48:22;;;;;;;6.22;1.60;;;;;;;8.78;100.00;102368.47;4937234;29;20413;-69
2023/06/02 00:50:48;;;;;;;3.47;1.25;;;;;;;8.81;100.00;102384.16;4954012;28;20059;-69
2023/06/02 00:53:15;;;;;;;6.50;1.65;;;;;;;8.80;100.00;102383.28;4953187;28;20069;-69
2023/06/02 00:55:43;;;;;;;5.10;1.52;;;;;;;8.76;100.00;102380.69;4938349;29;20118;-69
2023/06/02 00:58:13;;;;;;;5.43;1.75;;;;;;;8.80;100.00;102390.22;4954024;28;20050;-69
2023/06/02 01:00:43;;;;;;;4.20;1.38;;;;;;;8.78;100.00;102378.94;4961163;28;20088;-69
2023/06/02 01:03:14;;;;;;;5.07;1.58;;;;;;;8.70;100.00;102376.34;4954077;28;20508;-69
2023/06/02 01:05:44;;;;;;;4.55;1.52;;;;;;;8.60;100.00;102372.88;4953235;29;20058;-69
2023/06/02 01:08:12;;;;;;;5.20;1.45;;;;;;;8.66;100.00;102387.69;4954370;29;20086;-69
2023/06/02 01:10:40;;;;;;;8.23;1.85;;;;;;;8.62;100.00;102385.94;4953670;28;20047;-69
2023/06/02 01:13:07;;;;;;;4.93;1.40;;;;;;;8.57;100.00;102375.53;4953348;29;20065;-69
2023/06/02 01:15:34;;;;;;;2.72;1.20;;;;;;;8.46;100.00;102378.13;4952155;28;20485;-69
2023/06/02 01:18:05;;;;;;;6.47;1.60;;;;;;;8.50;100.00;102382.50;4953311;29;20477;-69
2023/06/02 01:20:32;;;;;;;4.60;1.60;;;;;;;8.53;100.00;102384.22;4953802;29;20055;-68
2023/06/02 01:23:15;;;;;;;5.45;1.45;;;;;;;8.49;100.00;102374.66;4953076;28;20047;-68
2023/06/02 01:25:44;;;;;;;4.38;1.50;;;;;;;8.31;100.00;102392.06;4952459;28;20047;-68
2023/06/02 01:28:10;;;;;;;5.30;1.60;;;;;;;8.08;100.00;102376.44;4953756;29;20190;-68
2023/06/02 01:30:37;;;;;;;5.70;1.80;;;;;;;7.91;100.00;102384.28;4953020;29;20047;-68
2023/06/02 01:33:10;;;;;;;4.97;2.17;;;;;;;7.89;100.00;102378.19;4953099;28;20051;-68
2023/06/02 01:35:45;;;;;;;4.03;2.00;;;;;;;8.08;100.00;102386.88;4952480;28;20039;-68
2023/06/02 01:38:14;;;;;;;6.72;1.67;;;;;;;8.13;100.00;102374.72;4952324;28;20409;-68
2023/06/02 01:40:42;;;;;;;6.82;2.00;;;;;;;7.98;100.00;102366.88;4953392;29;20066;-68
2023/06/02 01:43:09;;;;;;;5.40;1.73;;;;;;;8.11;100.00;102375.56;4953449;28;20051;-68
2023/06/02 01:45:37;;;;;;;5.45;1.48;;;;;;;8.14;100.00;102380.78;4951894;28;20073;-69
2023/06/02 01:48:05;;;;;;;5.22;1.60;;;;;;;8.20;100.00;102372.97;4953359;29;20487;-68
2023/06/02 01:50:34;;;;;;;4.05;1.60;;;;;;;8.14;100.00;102358.19;4952950;28;20047;-68
2023/06/02 01:53:01;;;;;;;6.78;1.65;;;;;;;8.10;100.00;102355.59;4946541;28;20063;-69
2023/06/02 01:55:28;;;;;;;5.63;1.60;;;;;;;8.08;100.00;102359.94;4952300;28;20050;-69
2023/06/02 01:57:55;;;;;;;5.80;1.95;;;;;;;8.01;100.00;102368.66;4953596;29;20062;-69
2023/06/02 02:00:22;;;;;;;4.18;1.50;;;;;;;8.02;100.00;102358.22;4952504;29;20478;-69
2023/06/02 02:02:50;;;;;;;5.75;1.67;;;;;;;8.01;100.00;102364.28;4936047;29;20067;-69
2023/06/02 02:05:18;;;;;;;4.97;1.80;;;;;;;7.82;100.00;102344.31;4952097;28;20057;-68
2023/06/02 02:07:47;;;;;;;5.65;1.90;;;;;;;7.65;100.00;102373.84;4951020;29;20047;-68
2023/06/02 02:10:14;;;;;;;13.27;2.45;;;;;;;7.55;100.00;102372.09;4936293;29;20393;-69
2023/06/02 02:12:41;;;;;;;5.80;1.77;;;;;;;7.63;100.00;102367.75;4952864;28;20446;-69
2023/06/02 02:15:11;;;;;;;5.35;1.75;;;;;;;7.54;100.00;102360.81;4951516;29;20134;-69
2023/06/02 02:17:44;;;;;;;6.45;1.70;;;;;;;7.63;100.00;102364.28;4952849;28;20053;-69
2023/06/02 02:20:16;;;;;;;4.50;1.60;;;;;;;7.44;100.00;102356.47;4952556;28;20137;-69
2023/06/02 02:22:46;;;;;;;7.82;2.28;;;;;;;7.43;100.00;102356.44;4950106;28;20050;-69
2023/06/02 02:25:13;;;;;;;5.47;1.85;;;;;;;7.48;100.00;102358.19;4951474;29;20075;-69
2023/06/02 02:27:40;;;;;;;10.30;2.15;;;;;;;7.38;100.00;102348.59;4953377;29;20126;-69
2023/06/02 02:30:08;;;;;;;6.05;2.33;;;;;;;7.35;100.00;102354.69;4952778;29;20055;-69
2023/06/02 02:32:38;;;;;;;5.35;1.88;;;;;;;7.31;100.00;102354.69;4935018;29;20051;-69
2023/06/02 02:35:05;;;;;;;8.40;2.20;;;;;;;7.25;100.00;102341.66;4950952;28;20485;-69
2023/06/02 02:37:32;;;;;;;6.40;1.80;;;;;;;7.41;100.00;102346.03;4951241;28;20485;-69
2023/06/02 02:40:12;;;;;;;5.30;1.60;;;;;;;7.17;100.00;102342.50;4936738;29;20054;-69
2023/06/02 02:42:40;;;;;;;5.85;1.92;;;;;;;6.94;100.00;102339.84;4952941;28;20077;-69
2023/06/02 02:45:08;;;;;;;4.57;1.50;;;;;;;6.97;100.00;102339.84;4950952;28;20051;-69
2023/06/02 02:47:35;;;;;;;5.80;1.70;;;;;;;7.06;100.00;102346.81;4952144;29;20063;-69
2023/06/02 02:50:02;;;;;;;5.70;1.70;;;;;;;7.13;100.00;102345.09;4951764;28;20047;-70
2023/06/02 02:52:29;;;;;;;4.80;1.60;;;;;;;6.93;100.00;102342.44;4952040;29;20394;-69
2023/06/02 02:54:56;;;;;;;6.93;1.90;;;;;;;6.89;100.00;102344.16;4950346;29;20047;-69
2023/06/02 02:57:23;;;;;;;5.78;2.10;;;;;;;6.86;100.00;102336.34;4951523;28;20083;-69
2023/06/02 02:59:50;;;;;;;5.85;2.05;;;;;;;6.93;100.00;102337.22;4951522;29;20097;-69
2023/06/02 03:02:17;;;;;;;5.10;1.95;;;;;;;7.06;100.00;102351.16;4950619;28;20829;-69
2023/06/02 03:04:45;;;;;;;4.85;1.80;;;;;;;7.03;100.00;102339.88;4951048;28;20425;-69
2023/06/02 03:07:13;;;;;;;5.50;1.83;;;;;;;6.90;100.00;102339.81;4938114;28;20051;-69
2023/06/02 03:09:40;;;;;;;4.72;1.80;;;;;;;6.83;100.00;102331.09;4956138;28;20058;-69
2023/06/02 03:12:07;;;;;;;5.60;1.90;;;;;;;7.02;100.00;102337.25;4952133;28;20478;-69
2023/06/02 03:14:34;;;;;;;4.30;1.65;;;;;;;6.94;100.00;102332.03;4952093;29;20051;-69
2023/06/02 03:17:02;;;;;;;5.35;1.92;;;;;;;6.97;100.00;102331.16;4953068;28;20506;-69
2023/06/02 03:19:29;;;;;;;5.18;1.80;;;;;;;7.08;100.00;102342.47;4954928;28;20505;-69
2023/06/02 03:21:56;;;;;;;7.53;1.80;;;;;;;6.91;100.00;102331.16;4950360;28;20552;-69
2023/06/02 03:24:24;;;;;;;7.03;1.50;;;;;;;6.81;100.00;102338.06;4951732;29;20054;-69
2023/06/02 03:26:55;;;;;;;8.98;2.00;;;;;;;6.56;100.00;102329.28;4950862;29;20051;-69
2023/06/02 03:29:22;;;;;;;6.45;2.42;;;;;;;6.55;100.00;102332.72;4938386;28;20058;-69
2023/06/02 03:31:55;;;;;;;5.30;2.13;;;;;;;6.62;100.00;102345.78;4951676;28;20066;-69
2023/06/02 03:34:22;;;;;;;5.05;1.83;;;;;;;6.65;100.00;102334.50;4950407;28;20122;-69
2023/06/02 03:36:49;;;;;;;5.65;1.80;;;;;;;6.69;100.00;102338.00;4950716;28;20051;-69
2023/06/02 03:39:16;;;;;;;7.80;2.13;;;;;;;6.70;100.00;102347.56;4951119;28;20151;-69
2023/06/02 03:41:43;;;;;;;7.28;2.10;;;;;;;6.69;100.00;102343.22;4951718;29;20138;-69
2023/06/02 03:44:10;;;;;;;7.95;2.42;;;;;;;6.61;100.00;102332.78;4934943;29;20052;-69
2023/06/02 03:46:36;;;;;;;5.15;1.77;;;;;;;6.88;100.00;102345.03;4950386;29;20071;-69
2023/06/02 03:49:03;;;;;;;8.43;2.47;;;;;;;6.81;100.00;102336.31;4951585;29;20110;-69
2023/06/02 03:51:30;;;;;;;6.50;2.00;;;;;;;6.79;100.00;102337.19;4951047;29;20135;-69
2023/06/02 03:53:57;;;;;;;9.50;2.10;;;;;;;6.64;100.00;102335.41;4950869;28;20151;-69
2023/06/02 03:56:23;;;;;;;6.82;2.38;;;;;;;6.70;100.00;102327.59;4949569;28;20167;-69
2023/06/02 03:58:50;;;;;;;7.65;2.42;;;;;;;6.73;100.00;102324.13;4950030;29;20074;-69
2023/06/02 04:01:17;;;;;;;11.95;2.58;;;;;;;6.91;100.00;102346.78;4951986;28;20053;-69
2023/06/02 04:03:44;;;;;;;7.63;2.53;;;;;;;6.79;100.00;102321.56;4965351;28;20047;-69
2023/06/02 04:06:12;;;;;;;5.82;2.08;;;;;;;7.00;100.00;102345.06;4948210;28;20102;-69
2023/06/02 04:08:39;;;;;;;9.23;3.03;;;;;;;7.13;100.00;102345.94;4951873;28;20053;-69
2023/06/02 04:11:06;;;;;;;7.60;2.30;;;;;;;7.55;100.00;102346.91;4952818;29;20055;-69
2023/06/02 04:13:33;;;;;;;12.15;2.72;;;;;;;7.73;100.00;102343.41;4937249;28;20408;-69
2023/06/02 04:16:00;;;;;;;7.65;2.30;;;;;;;8.33;100.00;102350.31;4953914;28;20047;-69
2023/06/02 04:18:30;;;;;;;6.68;2.05;;;;;;;8.87;100.00;102332.75;4955065;28;20062;-69
2023/06/02 04:20:57;;;;;;;6.00;1.90;;;;;;;9.25;100.00;102328.19;4954706;29;20058;-69
2023/06/02 04:23:24;;;;;;;8.32;1.98;;;;;;;9.85;100.00;102333.81;4951987;28;20143;-69
2023/06/02 04:25:51;;;;;;;12.80;2.30;;;;;;;9.82;100.00;102348.66;4962863;28;20375;-69
2023/06/02 04:28:19;;;;;;;10.27;2.75;;;;;;;9.24;100.00;102331.66;4954819;28;20507;-69
2023/06/02 04:30:48;;;;;;;7.78;2.58;;;;;;;9.82;100.00;102343.41;4937823;29;20051;-69
2023/06/02 04:33:17;;;;;;;7.15;2.03;;;;;;;10.12;100.00;102342.25;4955808;28;20493;-69
2023/06/02 04:35:43;;;;;;;8.82;2.30;;;;;;;10.54;100.00;102337.47;4953023;28;20465;-69
2023/06/02 04:38:11;;;;;;;7.97;2.05;;;;;;;10.70;100.00;102339.94;4953829;29;20093;-69
2023/06/02 04:40:38;;;;;;;6.40;1.90;;;;;;;10.91;100.00;102331.78;4954062;28;20138;-70
2023/06/02 04:43:05;;;;;;;7.10;1.80;;;;;;;11.56;100.00;102341.28;4953530;29;20055;-70
2023/06/02 04:45:33;;;;;;;8.75;2.45;;;;;;;11.64;100.00;102347.31;4953551;28;20062;-70
2023/06/02 04:48:01;;;;;;;6.95;2.17;;;;;;;11.56;100.00;102349.16;4954391;28;20528;-70
2023/06/02 04:50:28;;;;;;;10.18;2.00;;;;;;;11.24;100.00;102354.91;4953753;28;20462;-70
2023/06/02 04:52:54;;;;;;;5.45;1.80;;;;;;;10.16;100.00;102343.97;4953630;28;20055;-70
2023/06/02 04:55:21;;;;;;;6.55;2.05;;;;;;;9.60;100.00;102354.06;4952534;28;20477;-70
2023/06/02 04:57:48;;;;;;;6.40;1.98;;;;;;;9.18;100.00;102355.22;4953671;28;20047;-70
2023/06/02 05:00:16;;;;;;;8.18;2.17;;;;;;;9.10;100.00;102360.47;4953164;28;20059;-70
2023/06/02 05:02:43;;;;;;;7.28;1.70;;;;;;;8.96;100.00;102347.50;4953617;29;20051;-70
2023/06/02 05:05:10;;;;;;;6.30;1.95;;;;;;;8.62;100.00;102326.75;4953299;29;20130;-70
2023/06/02 05:07:36;;;;;;;5.75;1.75;;;;;;;8.88;100.00;102350.16;4960082;28;20069;-70
2023/06/02 05:10:04;;;;;;;6.45;2.08;;;;;;;9.47;100.00;102360.25;4968451;28;20054;-70
2023/06/02 05:12:31;;;;;;;5.85;2.05;;;;;;;9.38;100.00;102347.25;4956726;28;20054;-70
2023/06/02 05:14:58;;;;;;;6.75;2.63;;;;;;;9.44;100.00;102347.22;4952149;29;20143;-69
2023/06/02 05:17:28;;;;;;;7.45;1.92;;;;;;;9.09;100.00;102337.84;4953827;28;20043;-69
2023/06/02 05:19:55;;;;;;;9.60;2.22;;;;;;;9.05;100.00;102336.16;4954541;28;20069;-69
2023/06/02 05:22:22;;;;;;;5.30;1.70;;;;;;;9.24;100.00;102339.50;4952758;28;20083;-70
2023/06/02 05:24:49;;;;;;;4.70;1.88;;;;;;;9.52;100.00;102337.56;4959703;28;20094;-69
2023/06/02 05:27:16;;;;;;;6.93;2.10;;;;;;;9.64;100.00;102339.22;4954421;28;20078;-70
2023/06/02 05:29:43;;;;;;;6.55;2.08;;;;;;;9.23;100.00;102328.19;4954851;28;20055;-70
2023/06/02 05:32:11;;;;;;;7.60;2.00;;;;;;;9.25;100.00;102338.63;4957961;28;20153;-70
2023/06/02 05:34:39;;;;;;;4.30;1.50;;;;;;;9.50;100.00;102339.31;4952526;28;20047;-70
2023/06/02 05:37:06;;;;;;;6.05;1.73;;;;;;;10.05;100.00;102332.75;4952760;28;20043;-69
2023/06/02 05:39:33;;;;;;;5.55;1.65;;;;;;;10.30;100.00;102330.72;4953788;28;20169;-69
2023/06/02 05:42:00;;;;;;;6.72;1.98;;;;;;;10.29;100.00;102331.63;4954291;28;20142;-69
2023/06/02 05:44:26;;;;;;;14.98;2.15;;;;;;;10.50;100.00;102338.41;4955201;28;20051;-70
2023/06/02 05:46:53;;;;;;;7.03;1.90;;;;;;;10.53;100.00;102327.03;4952872;28;20485;-70
2023/06/02 05:49:20;;;;;;;5.57;1.85;;;;;;;11.44;100.00;102328.38;4958233;28;20593;-68
2023/06/02 05:51:47;;;;;;;7.47;1.80;;;;;;;12.12;100.00;102322.88;4954702;28;20055;-68
2023/06/02 05:54:15;;;;;;;8.40;2.00;;;;;;;12.20;100.00;102330.59;4955346;28;20059;-69
2023/06/02 05:56:43;;;;;;;6.80;2.03;;;;;;;12.73;100.00;102328.69;4953455;28;20126;-69
2023/06/02 05:59:10;;;;;;;7.35;2.25;;;;;;;13.39;100.00;102335.09;4963020;28;20429;-68
2023/06/02 06:01:39;;;;;;;7.20;2.22;;;;;;;13.09;100.00;102334.88;4955391;28;20728;-69
2023/06/02 06:04:15;;;;;;;7.55;1.77;;;;;;;13.23;100.00;102342.47;4921250;29;20485;-70
2023/06/02 06:06:42;;;;;;;8.65;2.05;;;;;;;13.62;100.00;102331.06;4950781;28;20504;-69
2023/06/02 06:09:11;;;;;;;9.63;2.47;;;;;;;13.77;100.00;102330.66;4935624;29;20047;-69
2023/06/02 06:11:41;;;;;;;6.82;1.73;;;;;;;14.52;100.00;102316.34;4939971;28;20471;-69
2023/06/02 06:14:07;;;;;;;5.72;1.67;;;;;;;14.25;100.00;102326.75;4952495;28;20054;-70
2023/06/02 06:16:38;;;;;;;7.22;2.00;;;;;;;14.46;100.00;102327.06;4937190;29;20047;-70
2023/06/02 06:19:13;;;;;;;6.10;1.58;;;;;;;14.84;100.00;102327.72;4954145;28;20039;-70
2023/06/02 06:21:40;;;;;;;8.20;1.85;;;;;;;14.34;100.00;102325.63;4964787;28;20056;-70
2023/06/02 06:24:13;;;;;;;6.25;2.00;;;;;;;14.41;100.00;102324.56;4961525;28;20110;-70
2023/06/02 06:26:41;;;;;;;7.40;1.90;;;;;;;14.50;100.00;102331.34;4954317;28;20520;-69
2023/06/02 06:29:11;;;;;;;7.53;1.70;;;;;;;14.31;100.00;102328.38;4952262;28;20049;-70
2023/06/02 06:31:38;;;;;;;8.10;1.52;;;;;;;14.95;100.00;102323.00;4951230;28;20067;-69
2023/06/02 06:34:10;;;;;;;6.50;1.55;;;;;;;15.47;100.00;102329.25;4969291;28;20074;-70
2023/06/02 06:36:37;;;;;;;5.03;1.52;;;;;;;15.77;100.00;102328.34;4961230;28;20206;-70
2023/06/02 06:39:04;;;;;;;8.70;2.35;;;;;;;15.11;100.00;102331.31;4952899;28;20474;-70
2023/06/02 06:41:30;;;;;;;6.47;1.55;;;;;;;14.90;100.00;102338.13;4953548;28;20051;-70
2023/06/02 06:43:59;;;;;;;10.70;2.35;;;;;;;15.38;100.00;102308.44;4949323;29;20093;-70
2023/06/02 06:46:26;;;;;;;7.25;1.77;;;;;;;15.30;100.00;102335.09;4951159;28;20049;-70
2023/06/02 06:48:53;;;;;;;6.95;1.77;;;;;;;15.64;100.00;102330.50;4958894;28;20051;-70
2023/06/02 06:51:20;;;;;;;6.95;1.48;;;;;;;16.50;100.00;102331.00;4953461;28;20051;-70
2023/06/02 06:53:46;;;;;;;6.38;1.60;;;;;;;16.64;100.00;102335.78;4954851;28;20058;-70
2023/06/02 06:56:13;;;;;;;7.90;1.98;;;;;;;15.69;100.00;102331.22;4959049;28;20360;-71
2023/06/02 06:58:40;;;;;;;8.98;2.35;;;;;;;16.17;100.00;102337.53;4950487;28;20494;-70
2023/06/02 07:01:06;;;;;;;11.20;2.40;;;;;;;16.22;100.00;102332.91;4957373;28;20047;-70
2023/06/02 07:03:33;;;;;;;6.43;1.55;;;;;;;16.48;100.00;102335.50;4954510;28;20043;-70
2023/06/02 07:06:00;;;;;;;7.07;1.90;;;;;;;16.32;100.00;102332.53;4953604;28;20057;-70
2023/06/02 07:08:29;;;;;;;8.40;1.92;;;;;;;15.96;100.00;102340.00;4962806;28;20054;-71
2023/06/02 07:10:56;;;;;;;11.38;1.90;;;;;;;16.17;100.00;102306.66;4969502;28;20298;-70
2023/06/02 07:13:26;;;;;;;9.77;2.25;;;;;;;16.53;100.00;102319.44;4966899;28;20412;-70
2023/06/02 07:15:53;;;;;;;7.55;1.88;;;;;;;16.62;100.00;102312.94;4958526;28;20051;-70
2023/06/02 07:18:20;;;;;;;13.63;2.17;;;;;;;16.80;100.00;102321.94;4958262;28;20051;-70
2023/06/02 07:20:47;;;;;;;10.50;2.45;;;;;;;15.69;100.00;102321.50;4955084;28;20643;-70
2023/06/02 07:23:14;;;;;;;10.93;2.42;;;;;;;16.33;100.00;102326.31;4958206;28;20047;-70
2023/06/02 07:25:41;;;;;;;9.40;2.13;;;;;;;17.01;100.00;102322.94;4954379;28;20107;-70
2023/06/02 07:28:07;;;;;;;9.13;2.22;;;;;;;15.45;100.00;102331.09;4954946;28;20622;-70
2023/06/02 07:30:35;;;;;;;11.73;3.00;;;;;;;16.24;100.00;102326.66;4959287;28;20047;-70
2023/06/02 07:33:02;;;;;;;11.68;2.38;;;;;;;16.99;100.00;102322.97;4944266;28;20098;-70
2023/06/02 07:35:29;;;;;;;8.90;1.90;;;;;;;17.21;100.00;102327.41;4958521;28;20090;-70
2023/06/02 07:37:56;;;;;;;9.02;1.90;;;;;;;17.07;100.00;102330.66;4955782;28;20177;-70
2023/06/02 07:40:22;;;;;;;9.80;2.05;;;;;;;17.08;100.00;102329.69;4958422;28;20048;-70
2023/06/02 07:42:49;;;;;;;12.52;2.05;;;;;;;17.35;100.00;102337.44;4953547;28;20055;-70
2023/06/02 07:45:16;;;;;;;17.15;3.35;;;;;;;17.19;100.00;102335.44;4965311;28;20453;-69
2023/06/02 07:47:43;;;;;;;13.73;2.58;;;;;;;17.16;100.00;102340.00;4954814;28;20047;-69
2023/06/02 07:50:10;;;;;;;11.35;2.67;;;;;;;17.48;100.00;102349.28;4956174;28;20059;-70
2023/06/02 07:52:37;;;;;;;6.10;1.67;;;;;;;17.54;100.00;102338.41;4948517;29;20047;-70
2023/06/02 07:55:05;;;;;;;13.07;2.63;;;;;;;18.06;100.00;102342.47;4954513;28;20134;-70
2023/06/02 07:57:32;;;;;;;10.98;2.47;;;;;;;17.78;100.00;102349.78;4954459;29;20134;-70
2023/06/02 08:00:07;;;;;;;14.02;3.00;;;;;;;17.86;100.00;102344.19;4957072;28;20047;-70
2023/06/02 08:02:34;;;;;;;10.80;2.22;;;;;;;18.69;100.00;102340.50;4958068;28;20151;-70
2023/06/02 08:05:01;;;;;;;10.07;2.10;;;;;;;19.04;100.00;102345.97;4953844;29;20532;-70
2023/06/02 08:07:28;;;;;;;15.02;3.45;;;;;;;17.56;100.00;102352.44;4954527;29;20066;-70
2023/06/02 08:09:55;;;;;;;8.13;1.80;;;;;;;18.31;100.00;102336.94;4955209;29;20089;-70
2023/06/02 08:12:22;;;;;;;8.68;1.70;;;;;;;19.22;100.00;102335.41;4954883;29;20051;-70
2023/06/02 08:14:49;;;;;;;15.25;2.92;;;;;;;18.42;100.00;102329.38;4958367;28;20478;-70
2023/06/02 08:17:15;;;;;;;10.05;1.70;;;;;;;19.12;100.00;102337.63;4954520;28;20058;-70
2023/06/02 08:19:42;;;;;;;10.00;2.45;;;;;;;18.79;100.00;102336.47;4953070;28;20055;-70
2023/06/02 08:22:09;;;;;;;12.20;3.35;;;;;;;18.57;100.00;102333.97;4953799;29;20047;-70
2023/06/02 08:24:36;;;;;;;10.68;2.97;;;;;;;18.64;100.00;102328.38;4953720;28;20511;-70
2023/06/02 08:27:04;;;;;;;9.82;2.95;;;;;;;18.31;100.00;102324.56;4953910;29;20565;-70
2023/06/02 08:29:32;;;;;;;8.90;2.45;;;;;;;18.41;100.00;102324.97;4954143;29;20082;-70
2023/06/02 08:31:59;;;;;;;14.85;3.15;;;;;;;19.07;100.00;102323.72;4955266;28;20117;-70
2023/06/02 08:34:27;;;;;;;11.57;2.80;;;;;;;19.13;100.00;102320.78;4954483;28;20051;-70
2023/06/02 08:36:56;;;;;;;8.88;2.10;;;;;;;19.01;100.00;102322.22;4953595;29;20153;-70
2023/06/02 08:39:25;;;;;;;13.55;2.88;;;;;;;19.04;100.00;102329.19;4954645;29;20043;-70
2023/06/02 08:42:13;;;;;;;8.15;1.85;;;;;;;19.05;100.00;102315.84;4953687;28;20051;-70
2023/06/02 08:44:41;;;;;;;10.73;2.50;;;;;;;17.72;100.00;102322.69;4954908;28;20490;-69
2023/06/02 08:47:12;;;;;;;14.60;3.60;;;;;;;17.53;100.00;102318.19;4960669;28;20465;-70
2023/06/02 08:49:42;;;;;;;12.93;3.47;;;;;;;18.17;100.00;102298.66;4970755;28;20366;-70
2023/06/02 08:52:15;;;;;;;13.55;3.30;;;;;;;17.89;100.00;102319.34;4953916;28;20051;-70
2023/06/02 08:54:42;;;;;;;;;;;;;;;18.07;100.00;102315.03;4957098;28;20078;-70
2023/06/02 08:57:12;;;;;;;10.38;2.85;;;;;;;18.06;100.00;102306.25;4957734;28;19926;-70
2023/06/02 08:59:39;;;;;;;8.85;1.95;;;;;;;18.10;100.00;102306.97;4962956;28;20572;-70
2023/06/02 09:02:06;;;;;;;15.95;3.83;;;;;;;17.78;100.00;102302.09;4955552;28;20624;-70
2023/06/02 09:04:33;;;;;;;9.95;2.50;;;;;;;18.32;100.00;102297.09;4960394;28;20094;-70
2023/06/02 09:07:12;;;;;;;12.05;2.78;;;;;;;18.31;100.00;102310.41;4956681;28;20473;-70
2023/06/02 09:09:41;;;;;;;13.38;2.97;;;;;;;18.38;100.00;102301.28;4960497;28;20082;-70
2023/06/02 09:12:09;;;;;;;17.60;4.70;;;;;;;17.10;100.00;102304.03;4953110;28;20126;-70
2023/06/02 09:14:36;;;;;;;13.63;2.78;;;;;;;17.84;100.00;102307.13;4954705;28;20059;-69
2023/06/02 09:17:22;;;;;;;15.40;3.58;;;;;;;17.19;100.00;102302.81;4952699;28;20058;-70
2023/06/02 09:19:50;;;;;;;17.30;2.83;;;;;;;17.92;100.00;102309.50;4952622;29;20059;-70
2023/06/02 09:22:17;;;;;;;16.88;3.38;;;;;;;17.43;100.00;102301.78;4964068;28;20043;-70
2023/06/02 09:24:44;;;;;;;9.93;2.30;;;;;;;17.23;100.00;102301.78;4935950;29;20478;-70
2023/06/02 09:27:16;;;;;;;15.20;3.05;;;;;;;17.62;100.00;102288.66;4952346;28;20047;-70
2023/06/02 09:29:44;;;;;;;19.57;3.03;;;;;;;17.50;100.00;102286.53;4951430;28;20067;-70
2023/06/02 09:32:16;;;;;;;13.98;3.15;;;;;;;17.48;100.00;102298.97;4952157;28;20285;-70
2023/06/02 09:34:45;;;;;;;13.80;2.95;;;;;;;17.59;100.00;102309.09;4951504;28;20059;-70
2023/06/02 09:37:14;;;;;;;12.93;2.55;;;;;;;17.31;100.00;102296.16;4951323;28;20043;-70
2023/06/02 09:39:49;;;;;;;10.60;2.63;;;;;;;17.72;100.00;102301.50;4951096;29;20074;-70
2023/06/02 09:42:17;;;;;;;11.95;2.78;;;;;;;17.51;100.00;102304.16;4955909;28;20051;-70
2023/06/02 09:45:04;;;;;;;11.30;2.33;;;;;;;17.92;100.00;102292.69;4952505;29;20055;-70
2023/06/02 09:47:41;;;;;;;12.35;3.30;;;;;;;17.77;100.00;102295.06;4953468;28;20166;-70
2023/06/02 09:50:13;;;;;;;10.40;2.58;;;;;;;17.98;100.00;102295.09;4953370;29;20130;-70
2023/06/02 09:52:39;;;;;;;16.90;4.07;;;;;;;16.93;100.00;102299.44;4952871;29;20055;-70
2023/06/02 09:55:07;;;;;;;11.15;2.63;;;;;;;17.67;100.00;102284.94;4952114;28;20150;-70
2023/06/02 09:57:34;;;;;;;10.82;2.78;;;;;;;17.63;100.00;102285.06;4953398;28;20619;-70
2023/06/02 10:00:02;;;;;;;15.48;3.40;;;;;;;17.11;100.00;102287.25;4953305;29;20489;-70
2023/06/02 10:02:28;;;;;;;14.13;3.22;;;;;;;17.14;100.00;102278.31;4953070;29;20047;-70
2023/06/02 10:04:55;;;;;;;16.38;2.97;;;;;;;17.50;100.00;102286.53;4951854;28;20335;-70
2023/06/02 10:07:25;;;;;;;11.93;2.50;;;;;;;17.46;100.00;102295.53;4952574;28;20478;-70
2023/06/02 10:10:13;;;;;;;16.10;3.10;;;;;;;16.86;100.00;102297.94;4953203;28;20062;-70
2023/06/02 10:12:42;;;;;;;12.32;2.88;;;;;;;16.93;100.00;102296.78;4941819;28;20134;-70
2023/06/02 10:15:28;;;;;;;17.05;3.13;;;;;;;17.21;100.00;102300.94;4951329;28;20043;-70
2023/06/02 10:18:06;;;;;;;15.10;3.10;;;;;;;16.91;100.00;102303.03;4942953;29;20802;-70
2023/06/02 10:20:40;;;;;;;14.68;2.95;;;;;;;16.78;100.00;102284.97;4953122;28;20047;-70
2023/06/02 10:23:51;;;;;;;11.25;2.72;;;;;;;17.37;100.00;102295.88;4952408;28;20054;-70
2023/06/02 10:26:46;;;;;;;13.00;3.78;;;;;;;17.07;100.00;102304.19;4946198;29;20051;-69
2023/06/02 10:29:14;;;;;;;8.32;2.13;;;;;;;17.57;100.00;102280.03;4952632;28;20049;-69
2023/06/02 10:31:43;;;;;;;12.43;2.67;;;;;;;17.48;100.00;102290.19;4952679;28;20452;-69
2023/06/02 10:34:38;;;;;;;17.45;3.33;;;;;;;17.26;100.00;102296.34;4952073;29;20055;-69
2023/06/02 10:37:06;;;;;;;12.85;2.70;;;;;;;17.29;100.00;102304.16;4952524;28;20477;-70
2023/06/02 10:39:38;;;;;;;15.20;3.55;;;;;;;16.91;100.00;102300.41;4952110;29;20058;-70
2023/06/02 10:42:06;;;;;;;12.23;2.80;;;;;;;16.65;100.00;102289.88;4960701;28;20105;-70
2023/06/02 10:44:33;;;;;;;17.58;3.60;;;;;;;17.07;100.00;102283.88;4955924;28;20426;-69
2023/06/02 10:47:17;;;;;;;18.50;3.60;;;;;;;17.03;100.00;102303.44;4951109;29;20061;-69
2023/06/02 10:50:01;;;;;;;14.73;3.28;;;;;;;17.16;100.00;102284.44;4952872;28;20051;-70
2023/06/02 10:53:12;;;;;;;12.88;2.95;;;;;;;17.56;100.00;102296.84;4952282;28;20051;-69
2023/06/02 10:55:40;;;;;;;14.73;2.92;;;;;;;17.56;100.00;102282.75;4844575;29;20086;-70
2023/06/02 10:58:11;;;;;;;16.15;3.42;;;;;;;17.14;100.00;102289.78;4853210;29;20155;-69
2023/06/02 11:00:43;;;;;;;13.40;2.83;;;;;;;17.48;100.00;102295.47;4889637;29;20081;-69
2023/06/02 11:03:22;;;;;;;14.13;2.65;;;;;;;17.04;100.00;102294.56;4933900;29;20059;-69
2023/06/02 11:05:50;;;;;;;18.05;3.63;;;;;;;17.18;100.00;102275.47;4950800;28;20066;-69
2023/06/02 11:08:18;;;;;;;14.93;3.47;;;;;;;16.78;100.00;102290.25;4952526;28;20047;-69
2023/06/02 11:10:50;;;;;;;16.23;3.08;;;;;;;17.25;100.00;102289.34;4951938;29;20091;-69
2023/06/02 11:13:18;;;;;;;12.57;3.13;;;;;;;17.57;100.00;102290.63;4952439;29;20086;-69
2023/06/02 11:15:54;;;;;;;21.52;4.38;;;;;;;17.51;100.00;102293.56;4950611;28;20046;-69
2023/06/02 11:18:33;;;;;;;16.65;3.30;;;;;;;17.91;100.00;102289.19;4953792;28;20051;-69
2023/06/02 11:21:02;;;;;;;16.10;3.25;;;;;;;17.27;100.00;102283.03;4939691;29;20048;-69
2023/06/02 11:23:30;;;;;;;16.20;2.88;;;;;;;17.46;100.00;102292.88;4950614;28;20141;-69
2023/06/02 11:26:00;;;;;;;12.80;2.83;;;;;;;17.17;100.00;102294.91;4950689;29;20137;-69
2023/06/02 11:28:28;;;;;;;12.75;2.65;;;;;;;17.01;100.00;102297.31;4951626;29;20070;-69